Terminal Aerodrome Forecast
Issued by NWS

Home | Current Version | Previous Version | Text Only | Print | Product List | Glossary On
Versions: 1 2 3 4 5 6 7 8 9 10 11 12 13
000
FTUS45 KABQ 261126
TAFSAF
TAF
KSAF 261126Z 2612/2712 16005KT P6SM BKN070
     FM261800 24008KT P6SM VCSH BKN070
     FM262100 26010KT P6SM VCTS OVC060CB
     FM270000 30009KT P6SM VCSH OVC050
     FM270300 35006KT P6SM BKN080=

USA.gov is the U.S. government's official web portal to all federal, state and local government web resources and services.